Time;durP1;ratioP1;P1;durP2;ratioP2;P2;SDS_P1;SDS_P2;PMS_P1;PMS_P2;Temp;Humidity;BMP_temperature;BMP_pressure;BME280_temperature;BME280_humidity;BME280_pressure;Samples;Min_cycle;Max_cycle;Signal;HPM_P1;HPM_P2
2021/05/21 00:01:14;;;;;;;;;;;11.00;83.40;;;;;;5089005;28;19920;-70
2021/05/21 00:03:40;;;;;;;;;;;11.00;83.30;;;;;;5088611;28;19912;-69
2021/05/21 00:06:06;;;;;;;;;;;11.00;83.20;;;;;;5075591;28;19980;-69
2021/05/21 00:08:32;;;;;;;;;;;11.00;83.10;;;;;;5080703;28;19920;-70
2021/05/21 00:10:58;;;;;;;;;;;11.00;83.50;;;;;;5092717;28;19912;-69
2021/05/21 00:13:23;;;;;;;;;;;11.00;83.20;;;;;;5090072;28;19923;-70
2021/05/21 00:15:52;;;;;;;;;;;11.10;82.10;;;;;;5091592;28;19923;-70
2021/05/21 00:18:20;;;;;;;;;;;11.10;82.60;;;;;;5091839;28;19912;-70
2021/05/21 00:20:45;;;;;;;;;;;11.10;82.00;;;;;;5078806;28;19912;-69
2021/05/21 00:23:11;;;;;;;;;;;11.10;81.90;;;;;;5094243;28;19931;-69
2021/05/21 00:25:36;;;;;;;;;;;11.10;81.90;;;;;;5096208;28;19923;-69
2021/05/21 00:28:02;;;;;;;;;;;11.20;81.40;;;;;;5094269;28;19960;-69
2021/05/21 00:30:28;;;;;;;;;;;11.30;80.50;;;;;;5095270;28;19912;-70
2021/05/21 00:32:53;;;;;;;;;;;11.40;80.50;;;;;;5091022;28;19916;-71
2021/05/21 00:35:19;;;;;;;;;;;11.30;80.80;;;;;;5093679;28;19912;-69
2021/05/21 00:37:44;;;;;;;;;;;11.30;81.10;;;;;;5091918;28;19919;-69
2021/05/21 00:40:10;;;;;;;;;;;11.20;81.30;;;;;;5090241;28;20221;-68
2021/05/21 00:42:36;;;;;;;;;;;11.20;81.40;;;;;;5079826;28;20478;-69
2021/05/21 00:45:02;;;;;;;;;;;11.20;81.60;;;;;;5075939;28;19966;-69
2021/05/21 00:47:28;;;;;;;;;;;11.20;81.40;;;;;;5060147;28;20011;-70
2021/05/21 00:49:53;;;;;;;;;;;11.20;80.90;;;;;;5089454;28;19963;-70
2021/05/21 00:52:23;;;;;;;;;;;11.30;80.60;;;;;;5088793;28;19951;-70
2021/05/21 00:54:50;;;;;;;;;;;11.20;81.00;;;;;;5076938;28;20271;-70
2021/05/21 00:57:16;;;;;;;;;;;11.20;81.20;;;;;;5085555;28;19963;-69
2021/05/21 00:59:41;;;;;;;;;;;11.20;81.00;;;;;;5085997;28;19912;-70
2021/05/21 01:02:13;;;;;;;;;;;11.20;81.30;;;;;;5091444;28;19912;-70
2021/05/21 01:04:39;;;;;;;;;;;11.30;80.70;;;;;;5095336;28;19915;-70
2021/05/21 01:07:10;;;;;;;;;;;11.20;81.20;;;;;;5073882;28;19912;-70
2021/05/21 01:09:36;;;;;;;;;;;11.10;81.30;;;;;;5065460;28;19921;-70
2021/05/21 01:12:02;;;;;;;;;;;11.10;80.90;;;;;;5065557;28;20185;-69
2021/05/21 01:14:28;;;;;;;;;;;11.30;80.50;;;;;;5084039;28;19916;-70
2021/05/21 01:16:53;;;;;;;;;;;11.20;80.80;;;;;;5093657;28;19912;-70
2021/05/21 01:19:19;;;;;;;;;;;11.20;81.10;;;;;;5093246;28;20011;-70
2021/05/21 01:21:44;;;;;;;;;;;11.20;80.20;;;;;;5094316;28;19920;-70
2021/05/21 01:24:10;;;;;;;;;;;11.30;79.70;;;;;;5095759;28;19908;-70
2021/05/21 01:26:36;;;;;;;;;;;11.50;78.90;;;;;;5092093;28;20321;-70
2021/05/21 01:29:03;;;;;;;;;;;11.50;78.60;;;;;;5089994;28;20327;-70
2021/05/21 01:31:29;;;;;;;;;;;11.60;77.60;;;;;;5072668;28;20001;-69
2021/05/21 01:33:55;;;;;;;;;;;11.60;77.60;;;;;;5077204;28;19923;-69
2021/05/21 01:36:20;;;;;;;;;;;11.60;77.30;;;;;;5092774;28;20227;-70
2021/05/21 01:38:56;;;;;;;;;;;11.50;77.40;;;;;;5083260;28;19913;-69
2021/05/21 01:41:22;;;;;;;;;;;11.80;74.70;;;;;;5089594;28;19918;-69
2021/05/21 01:43:47;;;;;;;;;;;11.90;75.30;;;;;;5080920;28;20007;-70
2021/05/21 01:46:13;;;;;;;;;;;11.90;75.00;;;;;;5076897;28;20205;-69
2021/05/21 01:48:39;;;;;;;;;;;12.00;74.20;;;;;;5081313;28;19938;-69
2021/05/21 01:51:04;;;;;;;;;;;11.90;75.00;;;;;;5093316;28;19912;-69
2021/05/21 01:53:33;;;;;;;;;;;11.90;73.80;;;;;;5094696;28;19927;-69
2021/05/21 01:55:58;;;;;;;;;;;12.00;74.20;;;;;;5085655;28;20328;-71
2021/05/21 01:58:24;;;;;;;;;;;11.90;73.80;;;;;;5085540;28;19912;-69
2021/05/21 02:00:50;;;;;;;;;;;11.80;74.50;;;;;;5078921;28;19944;-70
2021/05/21 02:03:15;;;;;;;;;;;11.70;75.20;;;;;;5090576;28;19920;-70
2021/05/21 02:05:41;;;;;;;;;;;11.60;75.50;;;;;;5088048;28;20327;-69
2021/05/21 02:08:07;;;;;;;;;;;11.70;74.80;;;;;;5090232;28;19912;-69
2021/05/21 02:10:32;;;;;;;;;;;11.70;74.30;;;;;;5062779;28;19913;-70
2021/05/21 02:12:58;;;;;;;;;;;11.80;73.80;;;;;;5098563;28;19917;-69
2021/05/21 02:15:23;;;;;;;;;;;11.90;73.20;;;;;;5099023;28;19986;-70
2021/05/21 02:17:49;;;;;;;;;;;11.80;73.50;;;;;;5079428;28;19943;-70
2021/05/21 02:20:14;;;;;;;;;;;11.70;74.20;;;;;;5078617;28;20202;-70
2021/05/21 02:22:40;;;;;;;;;;;11.60;74.70;;;;;;5089771;28;19916;-70
2021/05/21 02:25:06;;;;;;;;;;;11.80;73.70;;;;;;5079202;28;20198;-70
2021/05/21 02:27:32;;;;;;;;;;;11.90;73.50;;;;;;5095930;28;19991;-70
2021/05/21 02:29:57;;;;;;;;;;;12.00;73.70;;;;;;5097790;28;19971;-70
2021/05/21 02:32:23;;;;;;;;;;;11.80;74.60;;;;;;5097241;28;19916;-70
2021/05/21 02:34:49;;;;;;;;;;;11.70;74.60;;;;;;5089361;28;20266;-70
2021/05/21 02:37:15;;;;;;;;;;;11.60;75.00;;;;;;5089383;28;19966;-70
2021/05/21 02:39:40;;;;;;;;;;;11.60;74.70;;;;;;5097002;28;19923;-70
2021/05/21 02:42:08;;;;;;;;;;;11.60;74.90;;;;;;5081263;28;19935;-70
2021/05/21 02:44:37;;;;;;;;;;;11.80;74.70;;;;;;5089451;28;20272;-70
2021/05/21 02:47:03;;;;;;;;;;;12.10;73.90;;;;;;5095263;28;19966;-70
2021/05/21 02:49:29;;;;;;;;;;;11.90;74.70;;;;;;5097195;28;19916;-70
2021/05/21 02:51:55;;;;;;;;;;;11.70;75.90;;;;;;5092685;28;20054;-69
2021/05/21 02:54:20;;;;;;;;;;;11.70;75.80;;;;;;5077364;28;20011;-70
2021/05/21 02:56:46;;;;;;;;;;;11.70;76.00;;;;;;5087644;28;19920;-70
2021/05/21 02:59:12;;;;;;;;;;;11.60;76.50;;;;;;5096950;28;20392;-70
2021/05/21 03:01:37;;;;;;;;;;;11.50;76.60;;;;;;5091984;28;19913;-70
2021/05/21 03:04:06;;;;;;;;;;;11.60;76.70;;;;;;5081873;28;19965;-70
2021/05/21 03:06:32;;;;;;;;;;;11.50;77.00;;;;;;5091870;28;20327;-70
2021/05/21 03:08:57;;;;;;;;;;;11.60;76.70;;;;;;5090825;28;19912;-70
2021/05/21 03:11:23;;;;;;;;;;;11.70;76.20;;;;;;5097479;28;19912;-70
2021/05/21 03:13:48;;;;;;;;;;;11.90;76.00;;;;;;5097043;28;19927;-69
2021/05/21 03:16:14;;;;;;;;;;;11.80;76.30;;;;;;5089511;28;19913;-69
2021/05/21 03:18:39;;;;;;;;;;;11.60;77.10;;;;;;5078162;28;19916;-70
2021/05/21 03:21:05;;;;;;;;;;;11.40;77.80;;;;;;5083156;28;19991;-69
2021/05/21 03:23:31;;;;;;;;;;;11.30;77.70;;;;;;5095845;28;19912;-69
2021/05/21 03:25:56;;;;;;;;;;;11.40;77.80;;;;;;5095657;28;19995;-71
2021/05/21 03:28:22;;;;;;;;;;;11.30;78.00;;;;;;5097485;28;20246;-71
2021/05/21 03:30:47;;;;;;;;;;;11.20;78.80;;;;;;5095308;28;19912;-70
2021/05/21 03:33:24;;;;;;;;;;;11.00;79.30;;;;;;5096446;28;19931;-70
2021/05/21 03:35:53;;;;;;;;;;;10.80;79.70;;;;;;5083097;28;20231;-71
2021/05/21 03:38:18;;;;;;;;;;;10.80;79.80;;;;;;5082154;28;19912;-70
2021/05/21 03:40:44;;;;;;;;;;;10.80;80.10;;;;;;5095299;28;20309;-70
2021/05/21 03:43:10;;;;;;;;;;;10.80;80.40;;;;;;5096292;28;19916;-70
2021/05/21 03:45:36;;;;;;;;;;;10.70;80.60;;;;;;5094219;28;19991;-70
2021/05/21 03:48:01;;;;;;;;;;;10.80;80.70;;;;;;5089065;28;19954;-69
2021/05/21 03:50:31;;;;;;;;;;;10.80;80.80;;;;;;5095207;28;19919;-70
2021/05/21 03:52:56;;;;;;;;;;;10.70;80.90;;;;;;5082962;28;19916;-70
2021/05/21 03:55:22;;;;;;;;;;;10.60;81.60;;;;;;5095793;28;20308;-70
2021/05/21 03:57:48;;;;;;;;;;;10.60;81.50;;;;;;5095805;28;20208;-70
2021/05/21 04:00:20;;;;;;;;;;;10.70;81.20;;;;;;5086689;28;19920;-70
2021/05/21 04:02:49;;;;;;;;;;;10.80;80.90;;;;;;5084428;28;19916;-70
2021/05/21 04:05:15;;;;;;;;;;;10.90;80.20;;;;;;5085022;28;19946;-70
2021/05/21 04:07:40;;;;;;;;;;;10.90;80.50;;;;;;5094410;28;20300;-71
2021/05/21 04:10:06;;;;;;;;;;;10.90;80.10;;;;;;5094563;28;19912;-70
2021/05/21 04:12:31;;;;;;;;;;;11.00;80.20;;;;;;5076598;28;19912;-70
2021/05/21 04:15:00;;;;;;;;;;;11.10;79.70;;;;;;5091701;28;19916;-70
2021/05/21 04:17:26;;;;;;;;;;;11.20;79.80;;;;;;5089140;28;19955;-70
2021/05/21 04:19:51;;;;;;;;;;;11.20;79.70;;;;;;5084275;28;19966;-70
2021/05/21 04:22:17;;;;;;;;;;;11.20;79.50;;;;;;5087682;28;19913;-69
2021/05/21 04:24:43;;;;;;;;;;;11.20;79.70;;;;;;5080025;28;19912;-70
2021/05/21 04:27:08;;;;;;;;;;;11.30;79.30;;;;;;5093563;28;20296;-71
2021/05/21 04:29:44;;;;;;;;;;;11.40;79.20;;;;;;5083642;28;20387;-70
2021/05/21 04:32:10;;;;;;;;;;;11.40;78.70;;;;;;5092865;28;19927;-70
2021/05/21 04:34:35;;;;;;;;;;;11.40;79.20;;;;;;5091819;28;20258;-70
2021/05/21 04:37:01;;;;;;;;;;;11.40;78.80;;;;;;5085106;28;20280;-70
2021/05/21 04:39:27;;;;;;;;;;;11.40;79.20;;;;;;5091750;28;19958;-70
2021/05/21 04:41:56;;;;;;;;;;;11.40;78.60;;;;;;5087783;28;19912;-69
2021/05/21 04:44:22;;;;;;;;;;;11.50;79.00;;;;;;5093894;28;20304;-71
2021/05/21 04:46:47;;;;;;;;;;;11.50;78.90;;;;;;5079234;28;19927;-69
2021/05/21 04:49:31;;;;;;;;;;;11.50;79.40;;;;;;5082736;28;19913;-70
2021/05/21 04:51:58;;;;;;;;;;;11.50;79.10;;;;;;5075771;28;20182;-69
2021/05/21 04:54:23;;;;;;;;;;;11.60;79.00;;;;;;5069050;28;20299;-70
2021/05/21 04:56:49;;;;;;;;;;;11.70;78.90;;;;;;5068079;28;20010;-71
2021/05/21 04:59:16;;;;;;;;;;;11.80;78.80;;;;;;5087247;28;19944;-69
2021/05/21 05:01:44;;;;;;;;;;;11.80;78.70;;;;;;5082413;28;20328;-69
2021/05/21 05:04:10;;;;;;;;;;;11.90;78.30;;;;;;5089811;28;20255;-72
2021/05/21 05:06:35;;;;;;;;;;;11.90;78.50;;;;;;5090411;28;19929;-70
2021/05/21 05:09:01;;;;;;;;;;;12.00;77.60;;;;;;5076609;28;19913;-69
2021/05/21 05:11:26;;;;;;;;;;;12.10;77.90;;;;;;5061422;28;19912;-70
2021/05/21 05:13:52;;;;;;;;;;;12.20;78.00;;;;;;5085916;28;19952;-70
2021/05/21 05:16:17;;;;;;;;;;;12.20;77.10;;;;;;5075654;28;20384;-70
2021/05/21 05:18:43;;;;;;;;;;;12.20;76.90;;;;;;5089551;28;19922;-70
2021/05/21 05:21:09;;;;;;;;;;;12.30;77.40;;;;;;5094628;28;19908;-69
2021/05/21 05:23:36;;;;;;;;;;;12.30;76.90;;;;;;5095490;28;19942;-70
2021/05/21 05:26:02;;;;;;;;;;;12.40;76.90;;;;;;5095893;28;20301;-70
2021/05/21 05:28:27;;;;;;;;;;;12.50;76.10;;;;;;5094162;28;19919;-69
2021/05/21 05:30:53;;;;;;;;;;;12.70;76.20;;;;;;5095625;28;19915;-70
2021/05/21 05:33:18;;;;;;;;;;;12.90;76.10;;;;;;5097753;28;19916;-69
2021/05/21 05:35:47;;;;;;;;;;;13.00;75.90;;;;;;5098466;28;20030;-69
2021/05/21 05:38:12;;;;;;;;;;;13.10;75.30;;;;;;5096469;28;19912;-69
2021/05/21 05:40:38;;;;;;;;;;;13.10;75.10;;;;;;5099225;28;20220;-69
2021/05/21 05:43:04;;;;;;;;;;;13.20;75.10;;;;;;5099355;28;19962;-70
2021/05/21 05:45:29;;;;;;;;;;;13.30;74.00;;;;;;5098973;28;19943;-70
2021/05/21 05:47:57;;;;;;;;;;;13.30;74.30;;;;;;5096997;28;20015;-70
2021/05/21 05:50:23;;;;;;;;;;;13.40;73.90;;;;;;5099340;28;20005;-70
2021/05/21 05:52:52;;;;;;;;;;;13.50;73.00;;;;;;5098109;28;19908;-70
2021/05/21 05:55:18;;;;;;;;;;;13.60;72.70;;;;;;5099086;28;19994;-69
2021/05/21 05:57:43;;;;;;;;;;;13.70;72.50;;;;;;5091024;28;19913;-69
2021/05/21 06:00:09;;;;;;;;;;;13.70;71.80;;;;;;5069307;28;19916;-69
2021/05/21 06:02:34;;;;;;;;;;;13.80;72.00;;;;;;5098161;28;20225;-70
2021/05/21 06:05:02;;;;;;;;;;;13.80;70.60;;;;;;5080444;28;19958;-70
2021/05/21 06:07:31;;;;;;;;;;;14.00;70.10;;;;;;5092545;28;19995;-69
2021/05/21 06:09:56;;;;;;;;;;;14.20;70.30;;;;;;5085833;28;20301;-69
2021/05/21 06:12:22;;;;;;;;;;;14.50;69.60;;;;;;5078414;28;19913;-69
2021/05/21 06:14:48;;;;;;;;;;;14.50;68.90;;;;;;5090675;28;19999;-68
2021/05/21 06:17:18;;;;;;;;;;;14.50;69.30;;;;;;5097787;28;20579;-68
2021/05/21 06:19:45;;;;;;;;;;;14.40;69.90;;;;;;5097623;28;20410;-71
2021/05/21 06:22:14;;;;;;;;;;;14.40;69.30;;;;;;5097516;28;19915;-74
2021/05/21 06:24:42;;;;;;;;;;;14.30;69.60;;;;;;5098601;28;20306;-71
2021/05/21 06:27:24;;;;;;;;;;;14.30;70.10;;;;;;5096272;28;19915;-71
2021/05/21 06:29:53;;;;;;;;;;;14.20;69.70;;;;;;5096074;28;19931;-71
2021/05/21 06:32:19;;;;;;;;;;;14.40;70.40;;;;;;5098642;28;19916;-70
2021/05/21 06:34:45;;;;;;;;;;;14.50;69.20;;;;;;5098080;28;20212;-71
2021/05/21 06:37:10;;;;;;;;;;;14.50;69.00;;;;;;5096740;28;19908;-70
2021/05/21 06:39:36;;;;;;;;;;;14.60;69.10;;;;;;5090686;28;20312;-70
2021/05/21 06:42:01;;;;;;;;;;;14.70;69.10;;;;;;5091611;28;19912;-70
2021/05/21 06:44:30;;;;;;;;;;;14.60;69.80;;;;;;5081575;28;19916;-70
2021/05/21 06:46:58;;;;;;;;;;;14.50;70.30;;;;;;5098152;28;19912;-70
2021/05/21 06:49:24;;;;;;;;;;;14.70;69.90;;;;;;5091482;28;19912;-70
2021/05/21 06:51:49;;;;;;;;;;;14.80;69.90;;;;;;5096936;28;19908;-69
2021/05/21 06:54:15;;;;;;;;;;;15.00;70.00;;;;;;5079527;28;19926;-70
2021/05/21 06:56:40;;;;;;;;;;;15.00;68.80;;;;;;5098142;28;19957;-70
2021/05/21 06:59:06;;;;;;;;;;;15.20;69.00;;;;;;5083763;28;19912;-72
2021/05/21 07:01:31;;;;;;;;;;;15.20;68.50;;;;;;5077896;28;19922;-70
2021/05/21 07:03:57;;;;;;;;;;;15.10;69.00;;;;;;5091501;28;20232;-70
2021/05/21 07:06:23;;;;;;;;;;;15.30;70.00;;;;;;5095384;28;20006;-70
2021/05/21 07:08:50;;;;;;;;;;;15.40;68.80;;;;;;5096526;28;20026;-70
2021/05/21 07:11:15;;;;;;;;;;;15.60;68.30;;;;;;5097795;28;19961;-70
2021/05/21 07:13:43;;;;;;;;;;;15.40;68.50;;;;;;5079545;28;19924;-70
2021/05/21 07:16:09;;;;;;;;;;;15.40;69.30;;;;;;5097021;28;20004;-69
2021/05/21 07:18:35;;;;;;;;;;;15.70;68.50;;;;;;5091049;28;19955;-70
2021/05/21 07:21:02;;;;;;;;;;;15.90;67.50;;;;;;5076593;28;19954;-70
2021/05/21 07:23:28;;;;;;;;;;;15.90;68.10;;;;;;5083986;28;19912;-70
2021/05/21 07:25:54;;;;;;;;;;;16.00;68.10;;;;;;5097266;28;19931;-70
2021/05/21 07:28:20;;;;;;;;;;;16.10;67.10;;;;;;5095874;28;19920;-70
2021/05/21 07:30:46;;;;;;;;;;;16.10;66.20;;;;;;5097181;28;19955;-70
2021/05/21 07:33:11;;;;;;;;;;;15.90;67.00;;;;;;5078756;28;19916;-70
2021/05/21 07:35:37;;;;;;;;;;;15.80;67.20;;;;;;5097139;28;19915;-70
2021/05/21 07:38:03;;;;;;;;;;;15.90;66.70;;;;;;5080704;28;20355;-71
2021/05/21 07:40:28;;;;;;;;;;;16.00;66.40;;;;;;5078776;28;19952;-72
2021/05/21 07:42:54;;;;;;;;;;;15.90;65.90;;;;;;5091333;28;19962;-71
2021/05/21 07:45:19;;;;;;;;;;;15.90;65.90;;;;;;5096597;28;19973;-71
2021/05/21 07:47:45;;;;;;;;;;;16.00;66.10;;;;;;5095342;28;19912;-71
2021/05/21 07:50:11;;;;;;;;;;;15.90;65.30;;;;;;5096974;28;20007;-71
2021/05/21 07:52:37;;;;;;;;;;;15.80;66.00;;;;;;5094524;28;19969;-71
2021/05/21 07:55:05;;;;;;;;;;;15.90;66.90;;;;;;5078368;28;19926;-71
2021/05/21 07:57:31;;;;;;;;;;;16.00;66.00;;;;;;5095009;28;19911;-71
2021/05/21 07:59:56;;;;;;;;;;;15.90;65.40;;;;;;5076717;28;20334;-71
2021/05/21 08:02:22;;;;;;;;;;;15.90;66.00;;;;;;5080173;28;19916;-71
2021/05/21 08:04:47;;;;;;;;;;;16.10;65.40;;;;;;5076315;28;19995;-71
2021/05/21 08:07:13;;;;;;;;;;;16.10;64.90;;;;;;5088679;28;19912;-71
2021/05/21 08:09:40;;;;;;;;;;;15.90;66.00;;;;;;5088253;28;19947;-71
2021/05/21 08:12:06;;;;;;;;;;;16.20;65.20;;;;;;5089403;28;20201;-71
2021/05/21 08:14:32;;;;;;;;;;;16.40;64.80;;;;;;5096144;28;20216;-71
2021/05/21 08:16:58;;;;;;;;;;;16.00;65.40;;;;;;5096076;28;19964;-71
2021/05/21 08:19:23;;;;;;;;;;;15.80;65.60;;;;;;5095604;28;19912;-71
2021/05/21 08:21:50;;;;;;;;;;;15.80;66.10;;;;;;5091552;28;19923;-70
2021/05/21 08:24:16;;;;;;;;;;;15.70;67.30;;;;;;5088324;28;19916;-71
2021/05/21 08:26:41;;;;;;;;;;;15.60;67.20;;;;;;5088008;28;19939;-71
2021/05/21 08:29:07;;;;;;;;;;;15.60;66.80;;;;;;5087688;28;19938;-70
2021/05/21 08:31:32;;;;;;;;;;;15.40;67.40;;;;;;5095302;28;20001;-70
2021/05/21 08:33:58;;;;;;;;;;;15.20;68.30;;;;;;5095985;28;20066;-70
2021/05/21 08:36:23;;;;;;;;;;;15.10;69.00;;;;;;5094302;28;19912;-70
2021/05/21 08:38:49;;;;;;;;;;;14.90;69.30;;;;;;5095289;28;20010;-70
2021/05/21 08:41:28;;;;;;;;;;;14.80;69.90;;;;;;5095383;28;20216;-70
2021/05/21 08:43:54;;;;;;;;;;;14.80;70.60;;;;;;5094261;28;19989;-70
2021/05/21 08:46:21;;;;;;;;;;;14.70;71.10;;;;;;5095586;28;19923;-70
2021/05/21 08:48:46;;;;;;;;;;;14.70;71.50;;;;;;5095078;28;20004;-70
2021/05/21 08:51:16;;;;;;;;;;;14.80;71.60;;;;;;5094017;28;19952;-70
2021/05/21 08:53:42;;;;;;;;;;;14.60;72.50;;;;;;5095213;28;20011;-70
2021/05/21 08:56:08;;;;;;;;;;;14.30;74.80;;;;;;5077526;28;19956;-70
2021/05/21 08:58:34;;;;;;;;;;;14.20;75.80;;;;;;5093813;28;19913;-70
2021/05/21 09:01:00;;;;;;;;;;;13.80;77.60;;;;;;5094839;28;19953;-70
2021/05/21 09:03:26;;;;;;;;;;;13.40;79.50;;;;;;5094359;28;19997;-70
2021/05/21 09:06:21;;;;;;;;;;;13.00;82.80;;;;;;5095636;28;19912;-75
2021/05/21 09:08:46;;;;;;;;;;;12.60;85.50;;;;;;5098461;28;20267;-76
2021/05/21 09:11:21;;;;;;;;;;;12.30;85.00;;;;;;5067521;28;19916;-75
2021/05/21 09:13:53;;;;;;;;;;;12.10;86.50;;;;;;5097169;28;19916;-78
2021/05/21 09:16:20;;;;;;;;;;;11.90;85.70;;;;;;5099922;28;19951;-77
2021/05/21 09:18:57;;;;;;;;;;;11.80;87.30;;;;;;5091295;28;20324;-77
2021/05/21 09:21:22;;;;;;;;;;;11.90;86.70;;;;;;5097666;28;20190;-76
2021/05/21 09:24:03;;;;;;;;;;;11.90;87.80;;;;;;5083319;28;19919;-76
2021/05/21 09:26:45;;;;;;;;;;;12.00;85.30;;;;;;5079352;28;19962;-76
2021/05/21 09:29:12;;;;;;;;;;;12.10;87.70;;;;;;5078700;28;19913;-76
2021/05/21 09:31:42;;;;;;;;;;;12.20;87.20;;;;;;5066620;28;19912;-76
2021/05/21 09:34:08;;;;;;;;;;;12.20;88.10;;;;;;5099387;28;19912;-76
2021/05/21 09:36:33;;;;;;;;;;;12.30;86.00;;;;;;5097941;28;20320;-75
2021/05/21 09:38:59;;;;;;;;;;;12.50;87.00;;;;;;5098023;28;19916;-76
2021/05/21 09:41:26;;;;;;;;;;;12.80;86.00;;;;;;5098459;28;20016;-75
2021/05/21 09:43:52;;;;;;;;;;;13.10;84.90;;;;;;5081122;28;19912;-75
2021/05/21 09:46:18;;;;;;;;;;;13.40;83.10;;;;;;5099044;28;19912;-75
2021/05/21 09:48:44;;;;;;;;;;;13.90;83.70;;;;;;5091434;28;19912;-76
2021/05/21 09:51:11;;;;;;;;;;;14.00;81.70;;;;;;5097625;28;19923;-75
2021/05/21 09:53:37;;;;;;;;;;;14.10;81.90;;;;;;5081276;28;20320;-75
2021/05/21 09:56:06;;;;;;;;;;;14.10;81.50;;;;;;5070786;28;19925;-76
2021/05/21 09:58:36;;;;;;;;;;;13.90;81.90;;;;;;5073026;28;19917;-75
2021/05/21 10:01:21;;;;;;;;;;;13.40;84.30;;;;;;5077025;28;20263;-75
2021/05/21 10:03:50;;;;;;;;;;;13.50;83.70;;;;;;5073928;28;20217;-76
2021/05/21 10:06:16;;;;;;;;;;;13.40;82.60;;;;;;5074493;28;20522;-75
2021/05/21 10:08:44;;;;;;;;;;;13.50;82.60;;;;;;5077056;28;19916;-76
2021/05/21 10:11:10;;;;;;;;;;;13.20;83.60;;;;;;5077304;28;19916;-75
2021/05/21 10:13:36;;;;;;;;;;;12.90;84.20;;;;;;5077130;28;20354;-75
2021/05/21 10:16:03;;;;;;;;;;;12.60;85.80;;;;;;5076775;28;19999;-75
2021/05/21 10:18:29;;;;;;;;;;;12.30;88.00;;;;;;5057985;28;19908;-75
2021/05/21 10:20:56;;;;;;;;;;;12.00;87.50;;;;;;5072143;28;20326;-75
2021/05/21 10:23:26;;;;;;;;;;;11.80;87.40;;;;;;5075119;28;19912;-75
2021/05/21 10:25:54;;;;;;;;;;;11.70;88.70;;;;;;5076197;28;19931;-75
2021/05/21 10:28:21;;;;;;;;;;;11.80;88.90;;;;;;5075575;28;19967;-75
2021/05/21 10:30:49;;;;;;;;;;;11.90;87.50;;;;;;5065474;28;19916;-75
2021/05/21 10:33:29;;;;;;;;;;;11.80;86.60;;;;;;5059725;28;19916;-75
2021/05/21 10:36:13;;;;;;;;;;;11.90;87.20;;;;;;5057357;28;20007;-75
2021/05/21 10:38:38;;;;;;;;;;;12.00;85.90;;;;;;5069121;28;20339;-75
2021/05/21 10:41:17;;;;;;;;;;;12.10;85.30;;;;;;5074134;28;19913;-75
2021/05/21 10:43:49;;;;;;;;;;;12.10;85.20;;;;;;5066352;28;19912;-74
2021/05/21 10:46:16;;;;;;;;;;;12.00;85.70;;;;;;5065108;28;19912;-74
2021/05/21 10:48:54;;;;;;;;;;;11.90;84.20;;;;;;5066536;28;20839;-73
2021/05/21 10:51:22;;;;;;;;;;;11.90;84.70;;;;;;5063304;28;20015;-74
2021/05/21 10:53:47;;;;;;;;;;;11.90;84.50;;;;;;5076774;28;19924;-75
2021/05/21 10:56:16;;;;;;;;;;;11.70;86.60;;;;;;5066472;28;19924;-74
2021/05/21 10:58:45;;;;;;;;;;;11.70;86.90;;;;;;5093545;28;19954;-75
2021/05/21 11:01:17;;;;;;;;;;;11.70;87.60;;;;;;5087400;28;19939;-74
2021/05/21 11:03:52;;;;;;;;;;;11.70;87.40;;;;;;5078032;28;19916;-75
2021/05/21 11:06:20;;;;;;;;;;;11.80;87.60;;;;;;5095069;28;19916;-74
2021/05/21 11:08:46;;;;;;;;;;;11.90;85.90;;;;;;5091580;28;20204;-74
2021/05/21 11:11:12;;;;;;;;;;;12.00;84.90;;;;;;5097064;28;20036;-74
2021/05/21 11:13:37;;;;;;;;;;;12.20;83.60;;;;;;5094528;28;19920;-75
2021/05/21 11:16:03;;;;;;;;;;;12.50;80.50;;;;;;5080386;28;19917;-74
2021/05/21 11:18:31;;;;;;;;;;;12.60;80.60;;;;;;5085639;28;19919;-74
2021/05/21 11:21:00;;;;;;;;;;;12.80;79.50;;;;;;5081260;28;19912;-75
2021/05/21 11:23:27;;;;;;;;;;;12.90;78.50;;;;;;5075866;28;19931;-76
2021/05/21 11:26:03;;;;;;;;;;;12.80;80.00;;;;;;5073210;28;20291;-75
2021/05/21 11:28:29;;;;;;;;;;;12.80;79.20;;;;;;5095389;28;20065;-74
2021/05/21 11:30:55;;;;;;;;;;;12.70;79.50;;;;;;5096004;28;19912;-75
2021/05/21 11:33:20;;;;;;;;;;;12.60;78.30;;;;;;5095969;28;20205;-75
2021/05/21 11:35:46;;;;;;;;;;;12.60;78.50;;;;;;5071600;28;20300;-75
2021/05/21 11:38:11;;;;;;;;;;;12.60;78.50;;;;;;5095144;28;20408;-75
2021/05/21 11:40:37;;;;;;;;;;;12.60;77.50;;;;;;5095921;28;20355;-74
2021/05/21 11:43:05;;;;;;;;;;;12.50;77.40;;;;;;5085671;28;19913;-74
2021/05/21 11:45:30;;;;;;;;;;;12.60;77.00;;;;;;5090110;28;19966;-74
2021/05/21 11:47:56;;;;;;;;;;;12.60;76.30;;;;;;5083328;28;20267;-74
2021/05/21 11:50:29;;;;;;;;;;;12.40;76.60;;;;;;5094791;28;19913;-76
2021/05/21 11:53:07;;;;;;;;;;;12.50;77.30;;;;;;5090652;28;19919;-75
2021/05/21 11:55:33;;;;;;;;;;;12.40;77.20;;;;;;5092184;28;19920;-74
2021/05/21 11:57:58;;;;;;;;;;;12.30;77.90;;;;;;5067625;28;20285;-75
2021/05/21 12:00:28;;;;;;;;;;;12.40;77.70;;;;;;5082389;28;19944;-74
2021/05/21 12:02:54;;;;;;;;;;;12.30;78.00;;;;;;5068153;28;19908;-73
2021/05/21 12:05:23;;;;;;;;;;;12.30;79.60;;;;;;5090619;28;19923;-72
2021/05/21 12:07:55;;;;;;;;;;;12.20;79.20;;;;;;5086092;28;19950;-74
2021/05/21 12:10:25;;;;;;;;;;;12.20;79.50;;;;;;5058921;28;19961;-76
2021/05/21 12:12:51;;;;;;;;;;;12.20;78.50;;;;;;5087235;28;19907;-75
2021/05/21 12:15:18;;;;;;;;;;;12.20;77.40;;;;;;5095672;28;19916;-75
2021/05/21 12:17:49;;;;;;;;;;;12.30;78.20;;;;;;5078704;28;19922;-75
2021/05/21 12:20:16;;;;;;;;;;;12.20;77.30;;;;;;5095137;28;20328;-75
2021/05/21 12:23:00;;;;;;;;;;;12.20;77.70;;;;;;5095150;28;20194;-75
2021/05/21 12:25:27;;;;;;;;;;;12.20;78.00;;;;;;5063315;28;20267;-75
2021/05/21 12:27:53;;;;;;;;;;;12.20;77.90;;;;;;5088063;28;19947;-75
2021/05/21 12:30:19;;;;;;;;;;;12.10;78.90;;;;;;5096443;28;19951;-74
2021/05/21 12:32:45;;;;;;;;;;;12.20;78.60;;;;;;5078293;28;19950;-75
2021/05/21 12:35:11;;;;;;;;;;;12.10;78.70;;;;;;5094620;28;19920;-75
2021/05/21 12:37:50;;;;;;;;;;;12.00;79.30;;;;;;5095074;28;19912;-76
2021/05/21 12:40:16;;;;;;;;;;;11.90;79.30;;;;;;5096139;28;20002;-75
2021/05/21 12:42:49;;;;;;;;;;;11.80;81.30;;;;;;5096214;28;20304;-75
2021/05/21 12:45:15;;;;;;;;;;;11.60;81.30;;;;;;5090195;28;19963;-75
2021/05/21 12:47:44;;;;;;;;;;;11.40;82.60;;;;;;5078203;28;19923;-75
2021/05/21 12:50:11;;;;;;;;;;;11.30;81.50;;;;;;5096286;28;19912;-75
2021/05/21 12:52:55;;;;;;;;;;;11.40;82.50;;;;;;5094665;28;20010;-74
2021/05/21 12:55:21;;;;;;;;;;;11.30;82.30;;;;;;5076475;28;19931;-75
2021/05/21 12:57:46;;;;;;;;;;;11.10;85.00;;;;;;5061773;28;19908;-75
2021/05/21 13:00:19;;;;;;;;;;;10.60;86.90;;;;;;5095976;28;19908;-76
2021/05/21 13:02:49;;;;;;;;;;;10.40;87.50;;;;;;5096021;28;20273;-75
2021/05/21 13:05:15;;;;;;;;;;;10.40;88.60;;;;;;5066539;28;19928;-75
2021/05/21 13:07:42;;;;;;;;;;;10.30;89.20;;;;;;5074390;28;20217;-75
2021/05/21 13:10:11;;;;;;;;;;;10.40;89.10;;;;;;5057983;28;19954;-75
2021/05/21 13:12:42;;;;;;;;;;;10.40;88.20;;;;;;5057773;28;19962;-75
2021/05/21 13:15:28;;;;;;;;;;;10.40;87.90;;;;;;5064650;28;19920;-75
2021/05/21 13:17:55;;;;;;;;;;;10.50;88.60;;;;;;5075207;28;20224;-75
2021/05/21 13:20:21;;;;;;;;;;;10.60;89.00;;;;;;5075642;28;19999;-75
2021/05/21 13:22:51;;;;;;;;;;;10.70;87.90;;;;;;5056537;28;20012;-76
2021/05/21 13:25:17;;;;;;;;;;;10.80;86.90;;;;;;5064725;28;19935;-76
2021/05/21 13:27:47;;;;;;;;;;;10.90;86.10;;;;;;5075514;28;19916;-75
2021/05/21 13:30:13;;;;;;;;;;;10.80;85.90;;;;;;5075675;28;19909;-75
2021/05/21 13:32:39;;;;;;;;;;;10.80;85.80;;;;;;5075485;28;19919;-76
2021/05/21 13:35:05;;;;;;;;;;;10.80;86.10;;;;;;5082425;28;19923;-75
2021/05/21 13:37:31;;;;;;;;;;;10.60;86.40;;;;;;5074206;28;19909;-75
2021/05/21 13:39:56;;;;;;;;;;;10.50;87.50;;;;;;5057630;28;19909;-75
2021/05/21 13:42:22;;;;;;;;;;;10.50;86.90;;;;;;5075437;28;20305;-75
2021/05/21 13:44:47;;;;;;;;;;;10.40;87.00;;;;;;5082402;28;20320;-75
2021/05/21 13:47:14;;;;;;;;;;;10.10;88.50;;;;;;5075197;28;19954;-75
2021/05/21 13:49:39;;;;;;;;;;;10.10;89.10;;;;;;5075270;28;19916;-75
2021/05/21 13:52:05;;;;;;;;;;;10.10;88.30;;;;;;5085009;28;19919;-75
2021/05/21 13:54:31;;;;;;;;;;;10.10;88.80;;;;;;5093092;28;19924;-76
2021/05/21 13:56:56;;;;;;;;;;;10.10;89.30;;;;;;5079042;28;19999;-75
2021/05/21 13:59:23;;;;;;;;;;;10.20;90.50;;;;;;5078978;28;20322;-76
2021/05/21 14:01:49;;;;;;;;;;;10.50;89.70;;;;;;5062221;28;20047;-75
2021/05/21 14:04:14;;;;;;;;;;;10.40;88.90;;;;;;5085691;28;20002;-75
2021/05/21 14:06:42;;;;;;;;;;;10.30;89.10;;;;;;5084595;28;20006;-75
2021/05/21 14:09:08;;;;;;;;;;;10.40;91.10;;;;;;5098476;28;20335;-75
2021/05/21 14:11:33;;;;;;;;;;;10.50;90.80;;;;;;5098978;28;19908;-75
2021/05/21 14:13:59;;;;;;;;;;;10.50;91.00;;;;;;5097838;28;20291;-75
2021/05/21 14:16:24;;;;;;;;;;;10.60;91.20;;;;;;5098065;28;19969;-75